Castalia, North Carolina
Current Conditions -  °F | °C
As of 1:55 PM on Monday 20 Oct 2014 (Local Time) from KLHZ Reporting Station
Clear Clear  
Wind Chill: 64°   Ceiling: Unl
Heat Index: 64°   Visibility: 10mi
Dew Point: 41°   Wind: 9mph
Humidity: 42%   Direction: 170°S
Pressure: 30.07"   Gusts: NA
Location:  36.08°N, 78.06°W
Report Text: KLHZ 201755Z AUTO 17008KT 160V230 10SM CLR 18/05 A3007 RMK AO2
Loading
Personal Weather Stations






























Interactive Weather Map
Tropical Storm Tracking
New forecast layout! Learn more

10-Day Weather Forecast

Advertisements
Track Severe Weather on mobile